createdAt,value
2019-04-21T00:01:18.267Z,67.69
2019-04-21T00:03:52.205Z,67.95
2019-04-21T00:06:36.935Z,68.05
2019-04-21T00:09:11.478Z,68.13
2019-04-21T00:14:03.755Z,67.15
2019-04-21T00:16:24.665Z,66.78
2019-04-21T00:18:59.156Z,66.55
2019-04-21T00:21:29.174Z,66.72
2019-04-21T00:24:23.017Z,66.36
2019-04-21T00:26:59.045Z,66.23
2019-04-21T00:29:35.406Z,66.03
2019-04-21T00:31:56.639Z,65.95
2019-04-21T00:34:13.312Z,65.97
2019-04-21T00:36:53.663Z,65.69
2019-04-21T00:39:43.655Z,65.31
2019-04-21T00:41:59.594Z,65.08
2019-04-21T00:44:26.190Z,64.61
2019-04-21T00:47:00.695Z,64.32
2019-04-21T00:49:28.237Z,64.34
2019-04-21T00:52:26.408Z,64.78
2019-04-21T00:54:58.594Z,65.03
2019-04-21T00:57:26.573Z,64.72
2019-04-21T00:59:56.537Z,63.65
2019-04-21T01:02:19.923Z,63.95
2019-04-21T01:04:49.535Z,64.07
2019-04-21T01:07:19.385Z,64.16
2019-04-21T01:09:45.321Z,63.87
2019-04-21T01:12:19.513Z,62.50
2019-04-21T01:14:58.166Z,62.50
2019-04-21T01:17:21.848Z,62.64
2019-04-21T01:19:43.893Z,62.31
2019-04-21T01:21:59.259Z,63.34
2019-04-21T01:24:33.022Z,63.34
2019-04-21T01:27:06.741Z,62.99
2019-04-21T01:29:51.293Z,63.63
2019-04-21T01:32:39.012Z,64.11
2019-04-21T01:34:45.375Z,64.02
2019-04-21T01:37:12.792Z,64.27
2019-04-21T01:39:53.280Z,64.43
2019-04-21T01:42:18.346Z,64.82
2019-04-21T01:44:49.998Z,64.34
2019-04-21T01:47:17.361Z,63.82
2019-04-21T01:49:41.477Z,64.53
2019-04-21T01:52:24.705Z,64.54
2019-04-21T01:55:04.876Z,64.93
2019-04-21T01:57:26.296Z,64.93
2019-04-21T01:59:54.254Z,64.56
2019-04-21T02:02:29.397Z,64.85
2019-04-21T02:05:06.983Z,64.96
2019-04-21T02:07:33.940Z,65.36
2019-04-21T02:10:04.816Z,65.54
2019-04-21T02:12:34.539Z,66.18
2019-04-21T02:15:04.891Z,66.02
2019-04-21T02:17:27.962Z,65.91
2019-04-21T02:19:56.156Z,66.41
2019-04-21T02:22:46.172Z,66.81
2019-04-21T02:25:08.635Z,67.08
2019-04-21T02:27:36.291Z,67.18
2019-04-21T02:30:10.673Z,67.30
2019-04-21T02:32:48.219Z,67.55
2019-04-21T02:35:20.797Z,67.59
2019-04-21T02:38:01.236Z,68.17
2019-04-21T02:40:19.061Z,68.09
2019-04-21T02:42:46.348Z,68.65
2019-04-21T02:45:11.367Z,68.92
2019-04-21T02:50:22.324Z,69.26
2019-04-21T02:52:43.460Z,69.67
2019-04-21T02:57:51.348Z,70.44
2019-04-21T03:00:26.171Z,70.53
2019-04-21T03:02:54.490Z,70.75
2019-04-21T03:05:36.406Z,70.96
2019-04-21T03:10:49.974Z,71.93
2019-04-21T03:15:39.986Z,72.10
2019-04-21T03:18:24.256Z,71.97
2019-04-21T03:25:49.753Z,71.87
2019-04-21T03:28:14.111Z,72.04
2019-04-21T03:38:16.799Z,72.58
2019-04-21T03:43:16.279Z,72.78
2019-04-21T03:45:49.295Z,72.75
2019-04-21T03:48:09.299Z,73.13
2019-04-21T03:50:44.089Z,73.11
2019-04-21T03:53:09.291Z,73.52
2019-04-21T03:58:35.145Z,73.69
2019-04-21T04:08:55.260Z,73.75
2019-04-21T04:11:23.421Z,74.03
2019-04-21T04:14:01.973Z,74.07
2019-04-21T04:16:16.982Z,74.05
2019-04-21T04:21:19.893Z,74.68
2019-04-21T04:26:17.002Z,74.99
2019-04-21T04:29:04.329Z,74.75
2019-04-21T04:31:25.829Z,74.72
2019-04-21T04:33:57.775Z,75.17
2019-04-21T04:36:24.370Z,75.52
2019-04-21T04:39:18.019Z,75.54
2019-04-21T04:44:12.849Z,74.70
2019-04-21T04:46:55.761Z,75.05
2019-04-21T04:49:11.159Z,74.89
2019-04-21T04:51:48.284Z,75.40
2019-04-21T04:54:17.103Z,75.09
2019-04-21T04:56:38.757Z,74.64
2019-04-21T04:59:24.543Z,74.40
2019-04-21T05:04:45.508Z,73.33
2019-04-21T05:07:07.070Z,73.55
2019-04-21T05:09:41.244Z,73.65
2019-04-21T05:12:05.862Z,73.76
2019-04-21T05:14:39.022Z,73.82
2019-04-21T05:17:14.263Z,74.14
2019-04-21T05:19:41.459Z,73.97
2019-04-21T05:22:14.228Z,74.67
2019-04-21T05:24:28.973Z,76.60
2019-04-21T05:26:59.533Z,75.31
2019-04-21T05:29:56.873Z,74.41
2019-04-21T05:32:27.006Z,73.46
2019-04-21T05:34:57.037Z,73.12
2019-04-21T05:37:43.438Z,72.07
2019-04-21T05:40:10.613Z,72.18
2019-04-21T05:42:42.489Z,71.79
2019-04-21T05:45:26.942Z,71.50
2019-04-21T05:48:10.054Z,71.58
2019-04-21T05:50:27.956Z,71.66
2019-04-21T05:52:53.573Z,71.88
2019-04-21T05:55:42.679Z,71.72
2019-04-21T05:58:04.193Z,72.15
2019-04-21T06:03:07.887Z,69.69
2019-04-21T06:08:09.752Z,66.98
2019-04-21T06:10:44.626Z,65.84
2019-04-21T06:13:13.376Z,64.61
2019-04-21T06:15:47.266Z,63.40
2019-04-21T06:18:13.243Z,61.61
2019-04-21T06:20:40.658Z,60.33
2019-04-21T06:23:14.798Z,59.11
2019-04-21T06:25:50.020Z,56.54
2019-04-21T06:28:13.762Z,56.54
2019-04-21T06:30:56.201Z,56.16
2019-04-21T06:33:04.919Z,55.89
2019-04-21T06:36:21.580Z,55.44
2019-04-21T06:38:33.825Z,52.44
2019-04-21T06:40:56.398Z,52.44
2019-04-21T06:43:44.792Z,50.82
2019-04-21T06:45:54.004Z,49.31
2019-04-21T06:48:28.473Z,47.69
2019-04-21T06:51:03.164Z,47.71
2019-04-21T06:53:29.666Z,46.91
2019-04-21T06:55:51.853Z,46.78
2019-04-21T06:58:26.315Z,45.09
2019-04-21T07:00:50.916Z,45.75
2019-04-21T07:03:26.861Z,45.15
2019-04-21T07:05:57.626Z,44.71
2019-04-21T07:08:44.702Z,45.06
2019-04-21T07:10:59.111Z,43.09
2019-04-21T07:13:22.434Z,40.70
2019-04-21T07:15:57.985Z,38.99
2019-04-21T07:18:30.037Z,37.58
2019-04-21T07:20:54.977Z,36.88
2019-04-21T07:23:31.964Z,35.87
2019-04-21T07:25:57.876Z,34.98
2019-04-21T07:28:25.292Z,33.88
2019-04-21T07:30:59.579Z,32.75
2019-04-21T07:33:49.257Z,33.49
2019-04-21T07:35:55.462Z,33.32
2019-04-21T07:38:27.221Z,33.24
2019-04-21T07:40:53.907Z,32.06
2019-04-21T07:43:21.940Z,31.53
2019-04-21T07:45:51.579Z,30.44
2019-04-21T07:48:26.312Z,30.08
2019-04-21T07:51:11.203Z,29.32
2019-04-21T07:53:59.633Z,28.82
2019-04-21T07:56:07.341Z,28.57
2019-04-21T07:58:53.812Z,28.57
2019-04-21T08:01:27.431Z,28.47
2019-04-21T08:03:54.397Z,29.19
2019-04-21T08:06:25.348Z,29.15
2019-04-21T08:08:46.717Z,28.55
2019-04-21T08:11:20.994Z,28.41
2019-04-21T08:13:53.574Z,27.52
2019-04-21T08:16:24.444Z,27.05
2019-04-21T08:18:54.887Z,27.20
2019-04-21T08:21:24.679Z,26.76
2019-04-21T08:23:48.544Z,26.38
2019-04-21T08:26:26.179Z,26.03
2019-04-21T08:28:58.881Z,25.13
2019-04-21T08:31:25.158Z,25.88
2019-04-21T08:33:55.401Z,24.77
2019-04-21T08:36:24.597Z,24.86
2019-04-21T08:38:54.447Z,24.75
2019-04-21T08:41:18.626Z,24.63
2019-04-21T08:43:54.604Z,24.24
2019-04-21T08:46:27.280Z,23.59
2019-04-21T08:48:56.669Z,23.17
2019-04-21T08:51:39.476Z,23.58
2019-04-21T08:54:07.679Z,22.70
2019-04-21T08:56:32.004Z,22.07
2019-04-21T08:59:21.869Z,22.26
2019-04-21T09:01:50.090Z,22.02
2019-04-21T09:04:24.481Z,21.57
2019-04-21T09:09:27.855Z,22.12
2019-04-21T09:11:54.103Z,21.14
2019-04-21T09:14:24.257Z,21.23
2019-04-21T09:16:47.604Z,22.01
2019-04-21T09:19:34.060Z,21.80
2019-04-21T09:24:22.254Z,21.14
2019-04-21T09:26:51.394Z,20.92
2019-04-21T09:29:10.929Z,21.16
2019-04-21T09:31:39.170Z,20.65
2019-04-21T09:34:06.629Z,19.82
2019-04-21T09:36:42.727Z,20.42
2019-04-21T09:39:14.141Z,20.13
2019-04-21T09:41:39.399Z,21.18
2019-04-21T09:44:15.080Z,21.57
2019-04-21T09:46:45.323Z,21.13
2019-04-21T09:49:12.560Z,20.80
2019-04-21T09:51:39.628Z,20.41
2019-04-21T09:54:12.614Z,19.58
2019-04-21T09:56:46.309Z,19.76
2019-04-21T09:59:17.992Z,19.34
2019-04-21T10:01:52.911Z,19.30
2019-04-21T10:04:09.884Z,19.32
2019-04-21T10:06:39.530Z,18.86
2019-04-21T10:09:13.951Z,18.60
2019-04-21T10:11:41.477Z,17.70
2019-04-21T10:14:10.221Z,18.71
2019-04-21T10:16:53.944Z,18.05
2019-04-21T10:19:23.332Z,18.17
2019-04-21T10:21:52.140Z,18.32
2019-04-21T10:24:20.649Z,17.99
2019-04-21T10:26:49.395Z,17.96
2019-04-21T10:29:24.311Z,18.92
2019-04-21T10:31:48.145Z,18.47
2019-04-21T10:34:17.048Z,17.64
2019-04-21T10:36:46.962Z,17.82
2019-04-21T10:39:15.797Z,17.52
2019-04-21T10:41:45.691Z,16.48
2019-04-21T10:44:14.196Z,15.97
2019-04-21T10:46:45.347Z,17.34
2019-04-21T10:49:12.915Z,16.94
2019-04-21T10:51:41.660Z,17.04
2019-04-21T10:54:11.438Z,16.55
2019-04-21T10:56:43.425Z,15.63
2019-04-21T10:59:10.413Z,15.59
2019-04-21T11:01:39.056Z,15.08
2019-04-21T11:04:17.210Z,14.83
2019-04-21T11:06:39.163Z,15.81
2019-04-21T11:09:10.753Z,15.86
2019-04-21T11:11:39.783Z,15.77
2019-04-21T11:14:08.660Z,15.31
2019-04-21T11:16:37.342Z,15.72
2019-04-21T11:19:06.377Z,16.01
2019-04-21T11:21:34.920Z,16.21
2019-04-21T11:24:03.923Z,16.65
2019-04-21T11:26:33.703Z,16.96
2019-04-21T11:29:03.138Z,16.26
2019-04-21T11:31:31.655Z,15.56
2019-04-21T11:34:00.876Z,15.84
2019-04-21T11:36:29.477Z,15.39
2019-04-21T11:39:16.894Z,15.64
2019-04-21T11:41:32.363Z,15.61
2019-04-21T11:44:01.427Z,15.46
2019-04-21T11:46:30.772Z,15.90
2019-04-21T11:49:00.044Z,14.94
2019-04-21T11:51:28.969Z,15.51
2019-04-21T11:53:59.070Z,15.51
2019-04-21T11:56:27.968Z,15.17
2019-04-21T11:58:57.827Z,15.12
2019-04-21T12:01:27.539Z,15.11
2019-04-21T12:03:56.214Z,15.48
2019-04-21T12:06:32.338Z,15.06
2019-04-21T12:08:57.661Z,14.64
2019-04-21T12:11:25.274Z,14.78
2019-04-21T12:13:54.245Z,14.95
2019-04-21T12:16:23.341Z,15.34
2019-04-21T12:18:52.435Z,14.87
2019-04-21T12:21:21.240Z,15.41
2019-04-21T12:23:50.277Z,13.96
2019-04-21T12:26:19.938Z,14.35
2019-04-21T12:28:50.039Z,14.73
2019-04-21T12:31:36.447Z,14.71
2019-04-21T12:34:07.773Z,14.81
2019-04-21T12:36:36.338Z,14.19
2019-04-21T12:39:08.412Z,14.24
2019-04-21T12:41:36.499Z,14.13
2019-04-21T12:44:05.071Z,14.31
2019-04-21T12:46:33.941Z,14.08
2019-04-21T12:49:02.421Z,14.95
2019-04-21T12:51:30.922Z,13.79
2019-04-21T12:53:59.626Z,14.33
2019-04-21T12:56:29.403Z,14.55
2019-04-21T12:58:57.909Z,13.84
2019-04-21T13:01:27.394Z,13.68
2019-04-21T13:03:56.022Z,13.63
2019-04-21T13:06:25.503Z,13.92
2019-04-21T13:09:02.999Z,14.05
2019-04-21T13:11:25.409Z,13.85
2019-04-21T13:13:53.936Z,13.83
2019-04-21T13:16:23.366Z,13.98
2019-04-21T13:18:53.343Z,13.78
2019-04-21T13:21:22.419Z,14.07
2019-04-21T13:23:50.949Z,14.14
2019-04-21T13:26:29.596Z,14.73
2019-04-21T13:28:50.084Z,13.44
2019-04-21T13:31:18.629Z,14.47
2019-04-21T13:33:48.113Z,14.33
2019-04-21T13:36:17.992Z,14.31
2019-04-21T13:39:26.257Z,14.02
2019-04-21T13:41:41.660Z,15.14
2019-04-21T13:44:13.957Z,14.81
2019-04-21T13:46:45.114Z,14.97
2019-04-21T13:49:13.974Z,14.99
2019-04-21T13:51:43.971Z,15.00
2019-04-21T13:54:13.860Z,14.69
2019-04-21T13:56:42.635Z,15.02
2019-04-21T13:59:11.107Z,15.68
2019-04-21T14:01:39.724Z,15.05
2019-04-21T14:04:09.396Z,14.65
2019-04-21T14:06:38.437Z,14.72
2019-04-21T14:09:11.408Z,15.02
2019-04-21T14:11:41.125Z,14.98
2019-04-21T14:14:10.368Z,14.79
2019-04-21T14:16:40.141Z,14.84
2019-04-21T14:19:09.711Z,14.53
2019-04-21T14:21:39.116Z,14.87
2019-04-21T14:24:08.907Z,15.30
2019-04-21T14:26:38.562Z,15.47
2019-04-21T14:29:08.254Z,15.61
2019-04-21T14:31:38.123Z,15.37
2019-04-21T14:34:07.936Z,15.08
2019-04-21T14:36:37.060Z,15.11
2019-04-21T14:39:08.547Z,15.09
2019-04-21T14:41:38.031Z,15.66
2019-04-21T14:44:06.980Z,15.39
2019-04-21T14:46:37.427Z,14.68
2019-04-21T14:49:21.282Z,15.39
2019-04-21T14:51:52.677Z,15.27
2019-04-21T14:54:23.146Z,14.97
2019-04-21T14:56:51.680Z,15.34
2019-04-21T14:59:21.378Z,15.85
2019-04-21T15:01:49.982Z,15.65
2019-04-21T15:04:19.375Z,15.15
2019-04-21T15:06:49.558Z,15.02
2019-04-21T15:09:18.897Z,15.61
2019-04-21T15:11:47.807Z,15.84
2019-04-21T15:14:17.754Z,15.63
2019-04-21T15:16:47.074Z,15.95
2019-04-21T15:19:16.847Z,16.06
2019-04-21T15:21:45.331Z,15.79
2019-04-21T15:24:14.236Z,16.44
2019-04-21T15:26:44.325Z,16.36
2019-04-21T15:29:12.955Z,15.62
2019-04-21T15:31:44.597Z,15.96
2019-04-21T15:34:13.002Z,16.55
2019-04-21T15:36:41.915Z,16.27
2019-04-21T15:39:11.755Z,15.95
2019-04-21T15:41:40.819Z,16.33
2019-04-21T15:44:09.895Z,16.01
2019-04-21T15:46:39.784Z,17.21
2019-04-21T15:49:09.191Z,16.69
2019-04-21T15:51:38.021Z,15.90
2019-04-21T15:54:07.007Z,15.93
2019-04-21T15:56:46.972Z,16.23
2019-04-21T15:59:17.058Z,16.76
2019-04-21T16:01:48.355Z,17.03
2019-04-21T16:04:17.209Z,17.50
2019-04-21T16:06:47.790Z,17.34
2019-04-21T16:09:21.105Z,17.30
2019-04-21T16:11:46.438Z,17.37
2019-04-21T16:14:14.837Z,17.00
2019-04-21T16:16:43.344Z,17.03
2019-04-21T16:19:12.306Z,17.02
2019-04-21T16:21:44.300Z,17.17
2019-04-21T16:24:12.235Z,16.96
2019-04-21T16:26:42.559Z,16.67
2019-04-21T16:29:11.395Z,16.81
2019-04-21T16:31:40.379Z,17.17
2019-04-21T16:34:09.303Z,17.62
2019-04-21T16:36:38.073Z,17.61
2019-04-21T16:39:07.557Z,17.91
2019-04-21T16:41:36.185Z,18.83
2019-04-21T16:44:05.120Z,18.62
2019-04-21T16:46:33.682Z,18.59
2019-04-21T16:49:02.232Z,18.19
2019-04-21T16:51:31.855Z,18.62
2019-04-21T16:54:02.102Z,18.74
2019-04-21T16:56:33.262Z,18.75
2019-04-21T16:59:03.382Z,18.65
2019-04-21T17:01:32.508Z,19.10
2019-04-21T17:04:02.413Z,19.09
2019-04-21T17:06:31.241Z,19.36
2019-04-21T17:09:00.992Z,19.36
2019-04-21T17:11:34.699Z,19.33
2019-04-21T17:14:00.541Z,19.49
2019-04-21T17:16:58.362Z,19.41
2019-04-21T17:19:10.800Z,19.51
2019-04-21T17:21:30.166Z,20.06
2019-04-21T17:23:59.018Z,19.93
2019-04-21T17:26:28.893Z,20.16
2019-04-21T17:28:58.734Z,20.26
2019-04-21T17:31:28.585Z,20.38
2019-04-21T17:34:02.231Z,20.75
2019-04-21T17:36:27.384Z,20.75
2019-04-21T17:38:55.891Z,20.79
2019-04-21T17:41:31.832Z,21.01
2019-04-21T17:43:56.049Z,21.17
2019-04-21T17:46:33.531Z,21.33
2019-04-21T17:48:55.284Z,21.57
2019-04-21T17:51:25.702Z,21.89
2019-04-21T17:54:03.177Z,22.12
2019-04-21T17:57:00.183Z,22.20
2019-04-21T17:59:28.014Z,22.72
2019-04-21T18:01:56.409Z,22.72
2019-04-21T18:04:25.919Z,22.91
2019-04-21T18:07:02.399Z,22.95
2019-04-21T18:09:47.061Z,23.34
2019-04-21T18:12:09.153Z,23.54
2019-04-21T18:14:21.889Z,23.71
2019-04-21T18:16:51.573Z,23.92
2019-04-21T18:19:26.007Z,24.13
2019-04-21T18:22:08.540Z,24.26
2019-04-21T18:24:47.640Z,24.79
2019-04-21T18:27:11.040Z,25.14
2019-04-21T18:29:40.093Z,25.52
2019-04-21T18:32:08.539Z,25.96
2019-04-21T18:34:52.377Z,26.80
2019-04-21T18:37:14.204Z,27.44
2019-04-21T18:40:01.650Z,27.91
2019-04-21T18:43:04.477Z,28.83
2019-04-21T18:45:48.988Z,28.65
2019-04-21T18:48:18.369Z,28.67
2019-04-21T18:50:58.901Z,29.20
2019-04-21T18:53:40.982Z,29.58
2019-04-21T18:56:00.354Z,29.67
2019-04-21T18:58:24.375Z,30.03
2019-04-21T19:00:58.310Z,30.26
2019-04-21T19:03:30.677Z,30.24
2019-04-21T19:06:01.707Z,30.98
2019-04-21T19:08:46.952Z,31.31
2019-04-21T19:11:13.491Z,31.58
2019-04-21T19:14:15.812Z,32.16
2019-04-21T19:16:38.736Z,32.70
2019-04-21T19:19:22.816Z,33.25
2019-04-21T19:21:24.479Z,33.27
2019-04-21T19:24:16.265Z,33.41
2019-04-21T19:26:37.728Z,33.67
2019-04-21T19:29:01.505Z,34.00
2019-04-21T19:31:34.982Z,33.98
2019-04-21T19:33:51.614Z,34.12
2019-04-21T19:36:15.104Z,34.35
2019-04-21T19:38:55.911Z,35.04
2019-04-21T19:41:28.071Z,35.57
2019-04-21T19:44:02.519Z,35.78
2019-04-21T19:46:33.143Z,36.25
2019-04-21T19:49:13.409Z,36.49
2019-04-21T19:51:26.221Z,37.07
2019-04-21T19:53:56.338Z,37.89
2019-04-21T19:56:16.165Z,38.65
2019-04-21T19:58:47.354Z,39.24
2019-04-21T20:04:24.185Z,40.56
2019-04-21T20:07:01.874Z,41.67
2019-04-21T20:09:37.199Z,42.24
2019-04-21T20:12:06.632Z,42.84
2019-04-21T20:17:06.607Z,43.41
2019-04-21T20:19:22.964Z,43.94
2019-04-21T20:21:53.373Z,44.10
2019-04-21T20:24:26.593Z,43.95
2019-04-21T20:27:04.733Z,43.52
2019-04-21T20:29:44.558Z,44.65
2019-04-21T20:32:16.351Z,44.58
2019-04-21T20:34:41.443Z,45.09
2019-04-21T20:37:09.297Z,45.77
2019-04-21T20:39:27.024Z,45.87
2019-04-21T20:42:08.623Z,45.84
2019-04-21T20:44:40.213Z,45.73
2019-04-21T20:47:07.418Z,45.79
2019-04-21T20:49:34.123Z,46.23
2019-04-21T20:52:18.942Z,47.14
2019-04-21T20:54:40.992Z,47.27
2019-04-21T20:57:11.521Z,47.40
2019-04-21T20:59:37.512Z,47.32
2019-04-21T21:02:10.215Z,47.54
2019-04-21T21:04:36.870Z,48.15
2019-04-21T21:07:25.556Z,48.75
2019-04-21T21:09:41.490Z,48.78
2019-04-21T21:12:25.747Z,48.55
2019-04-21T21:14:36.424Z,48.74
2019-04-21T21:17:25.386Z,49.14
2019-04-21T21:19:48.709Z,49.64
2019-04-21T21:22:06.047Z,49.76
2019-04-21T21:25:00.246Z,49.85
2019-04-21T21:27:12.950Z,50.06
2019-04-21T21:29:45.163Z,50.62
2019-04-21T21:34:45.400Z,51.45
2019-04-21T21:37:21.871Z,51.09
2019-04-21T21:39:54.402Z,51.89
2019-04-21T21:42:02.139Z,52.50
2019-04-21T21:44:28.726Z,53.15
2019-04-21T21:47:05.326Z,53.40
2019-04-21T21:49:43.971Z,53.53
2019-04-21T21:52:06.698Z,53.24
2019-04-21T21:54:27.709Z,53.24
2019-04-21T21:56:58.664Z,53.34
2019-04-21T21:59:31.080Z,53.07
2019-04-21T22:01:58.319Z,52.07
2019-04-21T22:04:30.733Z,52.00
2019-04-21T22:07:04.843Z,52.45
2019-04-21T22:09:28.337Z,52.13
2019-04-21T22:12:00.850Z,52.98
2019-04-21T22:14:36.437Z,52.78
2019-04-21T22:17:10.940Z,53.05
2019-04-21T22:19:51.212Z,53.32
2019-04-21T22:22:13.948Z,53.61
2019-04-21T22:24:41.439Z,53.54
2019-04-21T22:26:58.942Z,53.50
2019-04-21T22:29:34.993Z,53.55
2019-04-21T22:32:05.041Z,53.62
2019-04-21T22:34:35.759Z,53.98
2019-04-21T22:37:16.130Z,54.04
2019-04-21T22:39:44.967Z,54.22
2019-04-21T22:42:05.525Z,54.40
2019-04-21T22:44:28.357Z,54.85
2019-04-21T22:47:04.970Z,55.23
2019-04-21T22:49:26.879Z,55.37
2019-04-21T22:51:55.715Z,55.31
2019-04-21T22:54:30.146Z,55.67
2019-04-21T22:57:02.583Z,55.67
2019-04-21T22:59:27.840Z,56.63
2019-04-21T23:01:55.830Z,56.63
2019-04-21T23:04:32.965Z,56.73
2019-04-21T23:06:59.903Z,57.09
2019-04-21T23:09:26.669Z,57.47
2019-04-21T23:11:59.327Z,57.47
2019-04-21T23:14:27.973Z,57.76
2019-04-21T23:17:14.914Z,57.96
2019-04-21T23:19:38.858Z,58.41
2019-04-21T23:22:17.310Z,58.34
2019-04-21T23:24:54.582Z,57.91
2019-04-21T23:27:11.645Z,57.91
2019-04-21T23:29:55.769Z,57.86
2019-04-21T23:32:13.136Z,58.14
2019-04-21T23:34:32.506Z,58.06
2019-04-21T23:37:06.766Z,58.13
2019-04-21T23:39:32.027Z,58.46
2019-04-21T23:42:00.887Z,58.62
2019-04-21T23:44:28.268Z,59.17
2019-04-21T23:47:01.445Z,59.22
2019-04-21T23:49:40.493Z,59.22
2019-04-21T23:52:02.976Z,59.13
2019-04-21T23:54:27.488Z,59.60
2019-04-21T23:56:55.971Z,60.13
2019-04-21T23:59:24.819Z,60.39
